createdAt,value
2018-03-12T00:01:53.300Z,99430.36
2018-03-12T00:04:20.976Z,99432.92
2018-03-12T00:06:48.612Z,99430.35
2018-03-12T00:09:16.221Z,99429.91
2018-03-12T00:11:43.963Z,99429.05
2018-03-12T00:14:11.597Z,99425.60
2018-03-12T00:16:39.297Z,99429.47
2018-03-12T00:19:06.925Z,99426.88
2018-03-12T00:21:34.543Z,99422.12
2018-03-12T00:24:02.164Z,99420.41
2018-03-12T00:26:29.777Z,99423.42
2018-03-12T00:28:57.505Z,99423.42
2018-03-12T00:31:25.112Z,99414.37
2018-03-12T00:33:52.740Z,99419.11
2018-03-12T00:36:20.398Z,99413.50
2018-03-12T00:38:48.035Z,99414.37
2018-03-12T00:41:15.713Z,99417.38
2018-03-12T00:43:43.367Z,99412.19
2018-03-12T00:46:10.981Z,99411.78
2018-03-12T00:48:38.590Z,99416.92
2018-03-12T00:51:06.270Z,99409.17
2018-03-12T00:53:33.929Z,99408.33
2018-03-12T00:56:01.561Z,99410.02
2018-03-12T00:58:29.172Z,99404.44
2018-03-12T01:00:56.800Z,99406.59
2018-03-12T01:03:24.436Z,99400.53
2018-03-12T01:05:52.066Z,99391.48
2018-03-12T01:08:19.700Z,99388.46
2018-03-12T01:10:47.456Z,99383.31
2018-03-12T01:13:15.061Z,99376.02
2018-03-12T01:15:42.669Z,99379.03
2018-03-12T01:18:10.301Z,99378.16
2018-03-12T01:20:37.904Z,99376.87
2018-03-12T01:23:05.569Z,99381.17
2018-03-12T01:25:33.184Z,99369.55
2018-03-12T01:28:00.902Z,99370.44
2018-03-12T01:30:28.506Z,99363.12
2018-03-12T01:32:56.132Z,99365.27
2018-03-12T01:35:23.744Z,99369.14
2018-03-12T01:37:51.439Z,99367.42
2018-03-12T01:40:19.056Z,99364.84
2018-03-12T01:42:46.690Z,99365.27
2018-03-12T01:45:14.364Z,99356.23
2018-03-12T01:47:42.101Z,99351.92
2018-03-12T01:50:09.774Z,99343.30
2018-03-12T01:55:38.880Z,99339.45
2018-03-12T01:58:06.541Z,99332.56
2018-03-12T02:00:34.200Z,99327.79
2018-03-12T02:03:01.848Z,99326.50
2018-03-12T02:05:29.465Z,99320.89
2018-03-12T02:07:57.201Z,99309.69
2018-03-12T02:10:24.837Z,99300.20
2018-03-12T02:12:52.448Z,99302.38
2018-03-12T02:15:20.076Z,99301.07
2018-03-12T02:17:47.740Z,99292.89
2018-03-12T02:20:15.404Z,99291.16
2018-03-12T02:22:43.013Z,99290.70
2018-03-12T02:25:10.729Z,99285.96
2018-03-12T02:27:38.337Z,99284.22
2018-03-12T02:30:05.971Z,99283.36
2018-03-12T02:32:33.614Z,99280.34
2018-03-12T02:35:01.289Z,99279.45
2018-03-12T02:37:28.909Z,99280.31
2018-03-12T02:39:56.550Z,99288.03
2018-03-12T02:42:24.194Z,99274.70
2018-03-12T02:44:51.825Z,99278.16
2018-03-12T02:47:19.492Z,99282.00
2018-03-12T02:49:47.102Z,99279.85
2018-03-12T02:52:14.813Z,99279.01
2018-03-12T02:54:42.430Z,99277.29
2018-03-12T02:57:10.148Z,99276.84
2018-03-12T02:59:37.762Z,99274.67
2018-03-12T03:02:05.396Z,99265.65
2018-03-12T03:04:33.016Z,99263.06
2018-03-12T03:07:00.645Z,99256.16
2018-03-12T03:09:28.352Z,99251.00
2018-03-12T03:11:56.008Z,99248.41
2018-03-12T03:14:23.626Z,99252.70
2018-03-12T03:16:51.241Z,99255.25
2018-03-12T03:19:18.901Z,99256.53
2018-03-12T03:21:46.513Z,99260.38
2018-03-12T03:24:14.140Z,99259.51
2018-03-12T03:26:41.789Z,99261.22
2018-03-12T03:29:09.452Z,99270.67
2018-03-12T03:31:37.066Z,99277.58
2018-03-12T03:34:04.705Z,99279.29
2018-03-12T03:36:32.317Z,99279.72
2018-03-12T03:38:59.956Z,99275.85
2018-03-12T03:41:27.656Z,99284.45
2018-03-12T03:43:55.289Z,99283.59
2018-03-12T03:46:22.985Z,99279.70
2018-03-12T03:48:50.649Z,99280.56
2018-03-12T03:51:18.309Z,99279.70
2018-03-12T03:53:45.922Z,99276.28
2018-03-12T03:56:13.561Z,99276.27
2018-03-12T03:58:41.533Z,99275.86
2018-03-12T04:01:09.170Z,99279.30
2018-03-12T04:03:36.790Z,99268.13
2018-03-12T04:06:04.426Z,99259.95
2018-03-12T04:08:32.157Z,99259.95
2018-03-12T04:10:59.792Z,99260.36
2018-03-12T04:13:27.421Z,99262.09
2018-03-12T04:15:55.062Z,99264.63
2018-03-12T04:18:22.709Z,99261.13
2018-03-12T04:20:50.880Z,99267.55
2018-03-12T04:23:18.492Z,99256.78
2018-03-12T04:25:46.204Z,99262.35
2018-03-12T04:28:13.874Z,99259.76
2018-03-12T04:30:41.488Z,99254.59
2018-03-12T04:33:09.134Z,99253.28
2018-03-12T04:35:36.744Z,99255.42
2018-03-12T04:38:04.385Z,99253.71
2018-03-12T04:40:32.001Z,99248.98
2018-03-12T04:42:59.638Z,99247.70
2018-03-12T04:45:27.306Z,99233.95
2018-03-12T04:47:54.946Z,99212.91
2018-03-12T04:50:22.576Z,99207.73
2018-03-12T04:52:50.282Z,99184.53
2018-03-12T04:55:17.877Z,99182.81
2018-03-12T04:57:45.493Z,99184.53
2018-03-12T05:00:13.173Z,99176.36
2018-03-12T05:02:40.779Z,99168.20
2018-03-12T05:05:08.413Z,99169.05
2018-03-12T05:07:36.024Z,99168.58
2018-03-12T05:10:03.720Z,99162.97
2018-03-12T05:12:31.378Z,99159.89
2018-03-12T05:14:59.765Z,99162.87
2018-03-12T05:17:27.382Z,99155.52
2018-03-12T05:19:55.012Z,99150.35
2018-03-12T05:22:22.624Z,99151.58
2018-03-12T05:24:50.261Z,99152.83
2018-03-12T05:27:17.986Z,99154.51
2018-03-12T05:29:45.642Z,99154.43
2018-03-12T05:32:13.260Z,99152.69
2018-03-12T05:34:40.872Z,99151.41
2018-03-12T05:37:08.506Z,99142.84
2018-03-12T05:39:36.118Z,99141.98
2018-03-12T05:42:03.847Z,99144.15
2018-03-12T05:44:31.452Z,99149.29
2018-03-12T05:46:59.173Z,99145.86
2018-03-12T05:49:26.836Z,99147.16
2018-03-12T05:51:54.472Z,99145.08
2018-03-12T05:54:22.166Z,99148.95
2018-03-12T05:56:49.815Z,99137.41
2018-03-12T05:59:17.427Z,99130.13
2018-03-12T06:01:45.061Z,99128.45
2018-03-12T06:04:12.713Z,99131.89
2018-03-12T06:06:40.344Z,99125.48
2018-03-12T06:09:07.964Z,99119.95
2018-03-12T06:11:35.597Z,99116.54
2018-03-12T06:14:03.229Z,99123.85
2018-03-12T06:16:30.845Z,99131.16
2018-03-12T06:18:58.476Z,99135.03
2018-03-12T06:21:26.150Z,99135.07
2018-03-12T06:23:53.808Z,99131.64
2018-03-12T06:26:22.293Z,99136.81
2018-03-12T06:28:49.933Z,99134.70
2018-03-12T06:31:17.613Z,99135.58
2018-03-12T06:33:45.281Z,99131.30
2018-03-12T06:36:13.036Z,99135.62
2018-03-12T06:38:40.664Z,99126.20
2018-03-12T06:41:08.373Z,99124.50
2018-03-12T06:43:36.033Z,99117.21
2018-03-12T06:46:03.698Z,99123.69
2018-03-12T06:48:31.299Z,99126.70
2018-03-12T06:50:58.933Z,99125.41
2018-03-12T06:53:26.544Z,99120.69
2018-03-12T06:55:54.180Z,99125.42
2018-03-12T06:58:21.837Z,99134.41
2018-03-12T07:00:49.460Z,99133.58
2018-03-12T07:03:17.124Z,99139.61
2018-03-12T07:05:44.760Z,99145.17
2018-03-12T07:08:12.377Z,99127.99
2018-03-12T07:10:40.010Z,99118.56
2018-03-12T07:13:07.632Z,99128.48
2018-03-12T07:15:35.240Z,99124.17
2018-03-12T07:18:02.874Z,99130.64
2018-03-12T07:20:30.489Z,99143.13
2018-03-12T07:22:58.129Z,99134.53
2018-03-12T07:25:25.795Z,99122.52
2018-03-12T07:27:53.437Z,99124.27
2018-03-12T07:30:21.043Z,99109.20
2018-03-12T07:32:48.776Z,99109.62
2018-03-12T07:35:16.388Z,99117.37
2018-03-12T07:37:44.096Z,99116.94
2018-03-12T07:40:11.708Z,99125.13
2018-03-12T07:42:39.459Z,99127.70
2018-03-12T07:45:07.075Z,99120.38
2018-03-12T07:47:34.730Z,99115.61
2018-03-12T07:50:02.361Z,99100.97
2018-03-12T07:52:29.973Z,99103.55
2018-03-12T07:54:57.845Z,99097.52
2018-03-12T07:57:25.456Z,99093.20
2018-03-12T07:59:53.169Z,99099.63
2018-03-12T08:02:20.777Z,99091.03
2018-03-12T08:04:48.417Z,99094.04
2018-03-12T08:07:16.025Z,99095.31
2018-03-12T08:09:43.717Z,99093.17
2018-03-12T08:12:11.333Z,99093.59
2018-03-12T08:14:38.986Z,99094.85
2018-03-12T08:17:06.597Z,99088.37
2018-03-12T08:19:34.208Z,99087.05
2018-03-12T08:22:01.925Z,99093.92
2018-03-12T08:24:29.546Z,99096.49
2018-03-12T08:26:57.254Z,99099.50
2018-03-12T08:29:24.873Z,99103.36
2018-03-12T08:31:52.585Z,99099.45
2018-03-12T08:34:20.340Z,99089.97
2018-03-12T08:36:48.005Z,99086.49
2018-03-12T08:39:15.670Z,99094.22
2018-03-12T08:41:43.432Z,99092.48
2018-03-12T08:44:11.040Z,99095.02
2018-03-12T08:46:38.649Z,99092.45
2018-03-12T08:49:06.361Z,99093.31
2018-03-12T08:51:33.957Z,99092.87
2018-03-12T08:54:01.592Z,99089.42
2018-03-12T08:56:29.209Z,99098.08
2018-03-12T08:58:56.868Z,99101.52
2018-03-12T09:01:24.524Z,99102.81
2018-03-12T09:03:52.165Z,99092.47
2018-03-12T09:06:19.952Z,99100.22
2018-03-12T09:08:47.607Z,99103.20
2018-03-12T09:11:15.212Z,99104.92
2018-03-12T09:13:42.824Z,99101.47
2018-03-12T09:16:10.508Z,99103.20
2018-03-12T09:18:38.172Z,99105.35
2018-03-12T09:21:05.814Z,99108.78
2018-03-12T09:23:33.425Z,99106.61
2018-03-12T09:26:01.057Z,99106.16
2018-03-12T09:28:28.664Z,99102.66
2018-03-12T09:30:56.302Z,99100.49
2018-03-12T09:33:23.914Z,99099.56
2018-03-12T09:35:51.548Z,99091.76
2018-03-12T09:38:19.166Z,99095.14
2018-03-12T09:40:46.933Z,99087.72
2018-03-12T09:43:14.547Z,99084.62
2018-03-12T09:45:42.156Z,99084.97
2018-03-12T09:48:09.816Z,99087.90
2018-03-12T09:50:37.483Z,99083.08
2018-03-12T09:53:05.124Z,99085.19
2018-03-12T09:55:32.736Z,99083.81
2018-03-12T09:58:00.469Z,99078.14
2018-03-12T10:00:28.129Z,99084.55
2018-03-12T10:02:55.769Z,99074.97
2018-03-12T10:05:23.385Z,99085.28
2018-03-12T10:07:51.021Z,99081.75
2018-03-12T10:10:18.684Z,99079.54
2018-03-12T10:12:46.349Z,99082.93
2018-03-12T10:15:14.004Z,99086.79
2018-03-12T10:17:41.640Z,99083.24
2018-03-12T10:20:09.257Z,99081.48
2018-03-12T10:22:36.898Z,99085.77
2018-03-12T10:25:04.553Z,99088.31
2018-03-12T10:27:32.317Z,99089.14
2018-03-12T10:29:59.981Z,99089.56
2018-03-12T10:32:27.593Z,99098.17
2018-03-12T10:34:55.232Z,99099.48
2018-03-12T10:37:22.845Z,99092.17
2018-03-12T10:39:50.528Z,99088.36
2018-03-12T10:42:18.201Z,99095.76
2018-03-12T10:44:45.856Z,99093.67
2018-03-12T10:47:13.517Z,99090.23
2018-03-12T10:49:41.180Z,99083.78
2018-03-12T10:52:08.797Z,99085.09
2018-03-12T10:54:36.437Z,99080.32
2018-03-12T10:57:04.076Z,99083.34
2018-03-12T10:59:31.741Z,99084.20
2018-03-12T11:02:03.284Z,99080.31
2018-03-12T11:07:35.084Z,99081.54
2018-03-12T11:10:02.725Z,99073.34
2018-03-12T11:12:30.337Z,99075.50
2018-03-12T11:14:57.973Z,99072.53
2018-03-12T11:17:25.590Z,99068.69
2018-03-12T11:19:53.276Z,99064.36
2018-03-12T11:22:20.936Z,99061.38
2018-03-12T11:24:48.695Z,99056.17
2018-03-12T11:27:16.317Z,99051.84
2018-03-12T11:29:43.957Z,99043.16
2018-03-12T11:32:11.598Z,99040.13
2018-03-12T11:34:39.263Z,99033.19
2018-03-12T11:37:06.886Z,99040.05
2018-03-12T11:39:34.577Z,99040.45
2018-03-12T11:42:02.241Z,99032.22
2018-03-12T11:44:29.855Z,99028.27
2018-03-12T11:46:57.497Z,99030.84
2018-03-12T11:49:25.115Z,99027.84
2018-03-12T11:51:52.753Z,99023.94
2018-03-12T11:54:20.450Z,99020.91
2018-03-12T11:56:48.084Z,99021.30
2018-03-12T11:59:15.697Z,99023.41
2018-03-12T12:01:43.442Z,99020.33
2018-03-12T12:04:11.062Z,99009.91
2018-03-12T12:06:38.702Z,99013.27
2018-03-12T12:09:06.321Z,99009.74
2018-03-12T12:11:33.956Z,99009.23
2018-03-12T12:14:01.572Z,99006.16
2018-03-12T12:16:29.313Z,98998.34
2018-03-12T12:18:56.928Z,99003.02
2018-03-12T12:21:24.642Z,98999.48
2018-03-12T12:23:52.257Z,98996.81
2018-03-12T12:26:19.969Z,98997.16
2018-03-12T12:28:47.580Z,98994.54
2018-03-12T12:31:15.293Z,98992.33
2018-03-12T12:33:42.929Z,98996.17
2018-03-12T12:36:10.544Z,98990.91
2018-03-12T12:38:38.176Z,98990.91
2018-03-12T12:41:05.839Z,98990.45
2018-03-12T12:43:33.473Z,98990.88
2018-03-12T12:46:01.166Z,98989.55
2018-03-12T12:48:28.827Z,98986.09
2018-03-12T12:50:56.493Z,98989.55
2018-03-12T12:53:24.128Z,98989.97
2018-03-12T12:55:51.820Z,98986.06
2018-03-12T12:58:19.462Z,98986.03
2018-03-12T13:00:47.080Z,98984.72
2018-03-12T13:03:14.721Z,98983.41
2018-03-12T13:05:42.341Z,98985.19
2018-03-12T13:08:10.026Z,98983.91
2018-03-12T13:10:37.641Z,98978.77
2018-03-12T13:13:05.281Z,98979.67
2018-03-12T13:15:32.901Z,98977.97
2018-03-12T13:18:00.557Z,98980.16
2018-03-12T13:20:28.168Z,98974.54
2018-03-12T13:22:55.796Z,98973.65
2018-03-12T13:25:23.437Z,98974.05
2018-03-12T13:27:51.056Z,98969.70
2018-03-12T13:30:18.695Z,98971.85
2018-03-12T13:32:46.308Z,98966.61
2018-03-12T13:35:13.940Z,98968.80
2018-03-12T13:37:41.568Z,98975.30
2018-03-12T13:40:09.327Z,98968.81
2018-03-12T13:42:36.941Z,98966.61
2018-03-12T13:45:04.598Z,98967.05
2018-03-12T13:47:32.212Z,98965.73
2018-03-12T13:49:59.889Z,98963.56
2018-03-12T13:52:27.548Z,98969.56
2018-03-12T13:54:55.184Z,98965.64
2018-03-12T13:57:22.868Z,98960.38
2018-03-12T13:59:50.561Z,98960.76
2018-03-12T14:02:18.196Z,98954.66
2018-03-12T14:04:45.836Z,98950.70
2018-03-12T14:07:13.521Z,98951.11
2018-03-12T14:09:41.162Z,98946.73
2018-03-12T14:12:08.788Z,98947.21
2018-03-12T14:14:36.604Z,98945.48
2018-03-12T14:17:04.279Z,98942.08
2018-03-12T14:19:31.897Z,98946.93
2018-03-12T14:21:59.531Z,98948.26
2018-03-12T14:24:27.155Z,98947.45
2018-03-12T14:26:54.821Z,98944.47
2018-03-12T14:29:22.497Z,98942.80
2018-03-12T14:31:50.133Z,98944.09
2018-03-12T14:34:17.757Z,98948.41
2018-03-12T14:36:45.405Z,98951.44
2018-03-12T14:39:13.034Z,98947.48
2018-03-12T14:41:40.669Z,98947.03
2018-03-12T14:44:08.292Z,98939.20
2018-03-12T14:46:35.937Z,98936.58
2018-03-12T14:49:03.597Z,98935.27
2018-03-12T14:51:31.236Z,98942.14
2018-03-12T14:53:58.852Z,98936.52
2018-03-12T14:56:26.485Z,98943.88
2018-03-12T14:58:54.140Z,98944.33
2018-03-12T15:01:21.796Z,98949.03
2018-03-12T15:03:49.460Z,98942.95
2018-03-12T15:06:17.224Z,98946.82
2018-03-12T15:08:44.884Z,98948.14
2018-03-12T15:11:12.538Z,98943.41
2018-03-12T15:13:40.218Z,98936.95
2018-03-12T15:16:07.877Z,98943.54
2018-03-12T15:18:35.536Z,98946.17
2018-03-12T15:21:03.186Z,98943.17
2018-03-12T15:23:30.826Z,98940.55
2018-03-12T15:25:58.436Z,98942.30
2018-03-12T15:28:26.080Z,98943.63
2018-03-12T15:30:53.759Z,98944.12
2018-03-12T15:33:21.451Z,98952.42
2018-03-12T15:35:49.040Z,98949.47
2018-03-12T15:38:16.677Z,98949.11
2018-03-12T15:40:44.299Z,98953.03
2018-03-12T15:43:11.960Z,98947.90
2018-03-12T15:45:39.572Z,98942.36
2018-03-12T15:48:07.295Z,98950.64
2018-03-12T15:50:34.932Z,98949.84
2018-03-12T15:53:02.609Z,98952.52
2018-03-12T15:55:30.273Z,98952.99
2018-03-12T15:57:57.885Z,98956.97
2018-03-12T16:00:25.596Z,98957.01
2018-03-12T16:02:53.213Z,98952.33
2018-03-12T16:05:20.851Z,98953.22
2018-03-12T16:07:48.465Z,98947.19
2018-03-12T16:10:16.144Z,98945.52
2018-03-12T16:12:43.754Z,98943.41
2018-03-12T16:15:11.389Z,98940.42
2018-03-12T16:17:39.031Z,98943.49
2018-03-12T16:20:06.673Z,98944.42
2018-03-12T16:22:34.285Z,98947.05
2018-03-12T16:25:02.636Z,98950.15
2018-03-12T16:27:30.301Z,98960.55
2018-03-12T16:29:57.950Z,98960.98
2018-03-12T16:32:25.560Z,98964.45
2018-03-12T16:34:53.284Z,98967.89
2018-03-12T16:37:20.949Z,98967.03
2018-03-12T16:39:48.609Z,98973.92
2018-03-12T16:42:16.282Z,98974.81
2018-03-12T16:44:43.936Z,98969.63
2018-03-12T16:47:11.602Z,98972.63
2018-03-12T16:49:39.261Z,98967.45
2018-03-12T16:52:06.927Z,98976.55
2018-03-12T16:54:41.417Z,98976.55
2018-03-12T16:57:02.348Z,98971.80
2018-03-12T16:59:30.017Z,98969.66
2018-03-12T17:01:57.668Z,98975.73
2018-03-12T17:04:25.289Z,98972.34
2018-03-12T17:06:53.000Z,98977.14
2018-03-12T17:09:20.616Z,98977.23
2018-03-12T17:11:48.257Z,98975.95
2018-03-12T17:14:15.897Z,98972.98
2018-03-12T17:16:43.538Z,98980.37
2018-03-12T17:19:11.157Z,98977.81
2018-03-12T17:21:38.797Z,98969.61
2018-03-12T17:24:06.408Z,98975.69
2018-03-12T17:26:34.109Z,98967.91
2018-03-12T17:29:01.734Z,98973.53
2018-03-12T17:31:29.392Z,98975.28
2018-03-12T17:33:57.094Z,98976.14
2018-03-12T17:36:24.709Z,98983.09
2018-03-12T17:38:52.346Z,98982.28
2018-03-12T17:41:19.964Z,98978.86
2018-03-12T17:43:47.638Z,98982.36
2018-03-12T17:46:15.258Z,98985.41
2018-03-12T17:48:42.905Z,98976.80
2018-03-12T17:51:10.525Z,98974.22
2018-03-12T17:53:38.194Z,98975.55
2018-03-12T17:56:05.852Z,98974.30
2018-03-12T17:58:33.523Z,98975.17
2018-03-12T18:01:01.177Z,98981.25
2018-03-12T18:03:28.817Z,98976.94
2018-03-12T18:05:56.502Z,98982.14
2018-03-12T18:08:24.163Z,98982.17
2018-03-12T18:10:51.815Z,98983.06
2018-03-12T18:13:19.498Z,98986.56
2018-03-12T18:15:47.148Z,98989.16
2018-03-12T18:18:14.805Z,98984.86
2018-03-12T18:20:42.420Z,98985.31
2018-03-12T18:23:10.033Z,98989.66
2018-03-12T18:25:37.696Z,98981.04
2018-03-12T18:28:05.362Z,98987.09
2018-03-12T18:30:33.029Z,98982.31
2018-03-12T18:33:00.645Z,98985.34
2018-03-12T18:35:28.352Z,98990.94
2018-03-12T18:37:56.010Z,98989.20
2018-03-12T18:40:23.634Z,98992.66
2018-03-12T18:42:51.244Z,98987.91
2018-03-12T18:45:18.953Z,98986.63
2018-03-12T18:47:46.569Z,98991.42
2018-03-12T18:50:14.318Z,98984.50
2018-03-12T18:52:42.082Z,98987.96
2018-03-12T18:55:09.797Z,98991.44
2018-03-12T18:57:37.628Z,98990.16
2018-03-12T19:00:05.478Z,98986.69
2018-03-12T19:02:34.052Z,98996.19
2018-03-12T19:05:02.121Z,98987.58
2018-03-12T19:07:29.802Z,98989.76
2018-03-12T19:09:57.524Z,98989.76
2018-03-12T19:12:25.184Z,98992.36
2018-03-12T19:14:52.888Z,98985.91
2018-03-12T19:17:20.536Z,98991.08
2018-03-12T19:19:48.220Z,98989.38
2018-03-12T19:22:15.947Z,98988.95
2018-03-12T19:24:43.684Z,98988.95
2018-03-12T19:27:11.423Z,98988.97
2018-03-12T19:29:39.066Z,98988.54
2018-03-12T19:32:06.740Z,98989.38
2018-03-12T19:34:34.400Z,98991.98
2018-03-12T19:37:02.159Z,98990.70
2018-03-12T19:39:29.796Z,98992.87
2018-03-12T19:41:57.416Z,98993.31
2018-03-12T19:44:26.280Z,98998.10
2018-03-12T19:46:53.952Z,98994.66
2018-03-12T19:49:21.608Z,98995.11
2018-03-12T19:51:49.226Z,98999.39
2018-03-12T19:54:16.866Z,99001.58
2018-03-12T19:56:44.478Z,98994.68
2018-03-12T19:59:12.112Z,98999.86
2018-03-12T20:01:39.724Z,99002.45
2018-03-12T20:04:07.381Z,99004.20
2018-03-12T20:06:38.076Z,99007.20
2018-03-12T20:09:25.754Z,99009.84
2018-03-12T20:11:53.405Z,99012.44
2018-03-12T20:14:21.061Z,99013.75
2018-03-12T20:16:48.728Z,99011.22
2018-03-12T20:19:16.340Z,99021.99
2018-03-12T20:21:43.973Z,99013.83
2018-03-12T20:24:11.581Z,99021.62
2018-03-12T20:26:39.224Z,99022.92
2018-03-12T20:29:06.833Z,99020.35
2018-03-12T20:31:34.469Z,99019.50
2018-03-12T20:34:02.088Z,99023.41
2018-03-12T20:36:29.724Z,99023.84
2018-03-12T20:38:57.333Z,99021.27
2018-03-12T20:41:25.111Z,99017.84
2018-03-12T20:43:52.719Z,99023.44
2018-03-12T20:46:20.956Z,99025.19
2018-03-12T20:48:48.576Z,99029.48
2018-03-12T20:51:16.212Z,99029.06
2018-03-12T20:53:43.826Z,99026.05
2018-03-12T20:56:11.477Z,99029.48
2018-03-12T20:58:39.086Z,99029.52
2018-03-12T21:01:06.864Z,99027.78
2018-03-12T21:03:34.509Z,99032.56
2018-03-12T21:06:02.194Z,99032.12
2018-03-12T21:08:29.837Z,99029.97
2018-03-12T21:10:57.450Z,99040.33
2018-03-12T21:13:25.157Z,99035.17
2018-03-12T21:15:52.846Z,99033.44
2018-03-12T21:18:20.480Z,99039.06
2018-03-12T21:20:48.169Z,99039.48
2018-03-12T21:23:15.815Z,99040.80
2018-03-12T21:25:43.437Z,99044.67
2018-03-12T21:28:11.071Z,99043.41
2018-03-12T21:30:38.680Z,99043.42
2018-03-12T21:33:06.345Z,99042.13
2018-03-12T21:35:34.046Z,99044.28
2018-03-12T21:38:01.710Z,99046.47
2018-03-12T21:40:29.369Z,99046.49
2018-03-12T21:42:56.984Z,99050.38
2018-03-12T21:45:24.621Z,99055.58
2018-03-12T21:47:52.257Z,99057.73
2018-03-12T21:50:19.897Z,99056.45
2018-03-12T21:52:47.501Z,99058.64
2018-03-12T21:55:15.136Z,99060.79
2018-03-12T21:57:42.745Z,99061.22
2018-03-12T22:00:10.372Z,99058.66
2018-03-12T22:02:37.981Z,99066.41
2018-03-12T22:05:05.621Z,99066.86
2018-03-12T22:07:33.240Z,99060.82
2018-03-12T22:10:00.873Z,99063.87
2018-03-12T22:12:28.482Z,99063.01
2018-03-12T22:14:56.118Z,99067.75
2018-03-12T22:17:23.728Z,99072.06
2018-03-12T22:19:51.362Z,99071.64
2018-03-12T22:22:18.973Z,99070.34
2018-03-12T22:24:46.609Z,99072.95
2018-03-12T22:27:14.216Z,99076.81
2018-03-12T22:29:41.849Z,99074.67
2018-03-12T22:32:09.485Z,99081.56
2018-03-12T22:34:37.124Z,99083.27
2018-03-12T22:37:04.764Z,99077.66
2018-03-12T22:39:32.374Z,99076.41
2018-03-12T22:42:00.015Z,99076.84
2018-03-12T22:44:27.625Z,99083.30
2018-03-12T22:46:55.252Z,99085.45
2018-03-12T22:49:22.856Z,99087.19
2018-03-12T22:51:50.488Z,99084.63
2018-03-12T22:54:18.127Z,99076.45
2018-03-12T22:56:45.784Z,99084.19
2018-03-12T22:59:13.451Z,99088.52
2018-03-12T23:01:41.065Z,99082.91
2018-03-12T23:04:08.701Z,99083.35
2018-03-12T23:06:36.308Z,99091.52
2018-03-12T23:09:03.916Z,99090.25
2018-03-12T23:11:31.545Z,99091.55
2018-03-12T23:13:59.217Z,99089.81
2018-03-12T23:16:26.849Z,99092.83
2018-03-12T23:18:54.460Z,99088.97
2018-03-12T23:21:22.095Z,99091.98
2018-03-12T23:23:49.769Z,99091.10
2018-03-12T23:26:17.437Z,99097.58
2018-03-12T23:28:45.049Z,99097.12
2018-03-12T23:31:12.685Z,99098.00
2018-03-12T23:33:40.296Z,99107.05
2018-03-12T23:36:07.989Z,99098.44
2018-03-12T23:38:35.625Z,99096.27
2018-03-12T23:41:03.261Z,99098.44
2018-03-12T23:43:30.896Z,99097.98
2018-03-12T23:45:58.524Z,99098.42
2018-03-12T23:48:26.193Z,99104.02
2018-03-12T23:50:53.852Z,99110.48
2018-03-12T23:53:21.484Z,99112.20
2018-03-12T23:55:49.102Z,99114.34
2018-03-12T23:58:16.757Z,99113.04
